Time;durP1;ratioP1;P1;durP2;ratioP2;P2;SDS_P1;SDS_P2;PMS_P1;PMS_P2;Temp;Humidity;BMP_temperature;BMP_pressure;BME280_temperature;BME280_humidity;BME280_pressure;Samples;Min_cycle;Max_cycle;Signal;HPM_P1;HPM_P2
2022/11/28 00:01:40;;;;;;;25.40;14.73;;;;;;;;;;5052101;28;20048;-69
2022/11/28 00:04:06;;;;;;;21.63;13.35;;;;;;;;;;5035669;28;20066;-69
2022/11/28 00:06:35;;;;;;;27.63;15.63;;;;;;;;;;5052879;28;20446;-69
2022/11/28 00:09:01;;;;;;;26.33;14.27;;;;;;;;;;5035028;28;20132;-69
2022/11/28 00:11:27;;;;;;;25.55;14.50;;;;;;;;;;5035370;28;20045;-69
2022/11/28 00:13:54;;;;;;;25.77;13.82;;;;;;;;;;5077425;28;20044;-69
2022/11/28 00:16:20;;;;;;;26.73;14.10;;;;;;;;;;5085628;28;20148;-69
2022/11/28 00:18:47;;;;;;;23.50;14.57;;;;;;;;;;5051877;28;20045;-69
2022/11/28 00:21:14;;;;;;;30.55;14.40;;;;;;;;;;5051162;28;20048;-69
2022/11/28 00:23:40;;;;;;;25.80;13.82;;;;;;;;;;5050963;28;20052;-69
2022/11/28 00:26:12;;;;;;;24.10;13.73;;;;;;;;;;5051571;28;20033;-69
2022/11/28 00:28:38;;;;;;;25.15;14.68;;;;;;;;;;5051361;28;20099;-69
2022/11/28 00:31:04;;;;;;;26.27;13.88;;;;;;;;;;5051213;28;20044;-68
2022/11/28 00:33:31;;;;;;;30.20;15.55;;;;;;;;;;5051044;28;20040;-70
2022/11/28 00:36:01;;;;;;;26.08;14.63;;;;;;;;;;5051377;28;20124;-70
2022/11/28 00:38:27;;;;;;;22.38;14.50;;;;;;;;;;5052786;28;20048;-70
2022/11/28 00:40:59;;;;;;;26.27;13.88;;;;;;;;;;5052683;28;20040;-70
2022/11/28 00:43:25;;;;;;;25.55;15.43;;;;;;;;;;5051333;28;20512;-69
2022/11/28 00:45:51;;;;;;;24.83;14.25;;;;;;;;;;5052933;28;20171;-69
2022/11/28 00:48:17;;;;;;;25.13;15.30;;;;;;;;;;5052967;28;20037;-69
2022/11/28 00:50:44;;;;;;;27.85;15.60;;;;;;;;;;5051308;28;20041;-69
2022/11/28 00:53:10;;;;;;;25.60;14.07;;;;;;;;;;5051723;28;20040;-69
2022/11/28 00:55:38;;;;;;;26.38;16.15;;;;;;;;;;5051380;28;20485;-69
2022/11/28 00:58:04;;;;;;;27.30;15.05;;;;;;;;;;5051560;28;20497;-69
2022/11/28 01:00:30;;;;;;;29.88;15.55;;;;;;;;;;5051446;28;20046;-69
2022/11/28 01:02:56;;;;;;;30.23;16.02;;;;;;;;;;5051477;28;20090;-69
2022/11/28 01:05:22;;;;;;;29.67;16.48;;;;;;;;;;5051250;28;20041;-69
2022/11/28 01:07:48;;;;;;;25.27;15.75;;;;;;;;;;5051259;28;20515;-69
2022/11/28 01:10:14;;;;;;;32.10;16.75;;;;;;;;;;5034334;28;20466;-69
2022/11/28 01:12:40;;;;;;;25.38;15.38;;;;;;;;;;5087688;28;20147;-69
2022/11/28 01:15:07;;;;;;;23.95;14.25;;;;;;;;;;5054956;28;20036;-67
2022/11/28 01:17:33;;;;;;;25.20;15.00;;;;;;;;;;5054925;28;20041;-67
2022/11/28 01:19:59;;;;;;;27.60;14.73;;;;;;;;;;5055038;28;20052;-67
2022/11/28 01:22:26;;;;;;;23.98;14.75;;;;;;;;;;5054844;28;20049;-67
2022/11/28 01:24:52;;;;;;;29.55;15.38;;;;;;;;;;5055086;28;20063;-67
2022/11/28 01:27:18;;;;;;;25.08;14.90;;;;;;;;;;5055962;28;20043;-67
2022/11/28 01:29:44;;;;;;;24.15;14.90;;;;;;;;;;5056082;28;20069;-67
2022/11/28 01:32:10;;;;;;;25.60;14.27;;;;;;;;;;5054987;28;20048;-67
2022/11/28 01:34:36;;;;;;;26.08;14.65;;;;;;;;;;5038479;28;20489;-67
2022/11/28 01:37:02;;;;;;;24.52;14.55;;;;;;;;;;5054582;28;20119;-67
2022/11/28 01:39:28;;;;;;;27.40;15.07;;;;;;;;;;5054542;28;20116;-67
2022/11/28 01:41:54;;;;;;;23.60;13.63;;;;;;;;;;5055704;28;20075;-67
2022/11/28 01:44:20;;;;;;;27.50;14.02;;;;;;;;;;5055964;28;20501;-67
2022/11/28 01:46:46;;;;;;;23.80;14.48;;;;;;;;;;5054381;28;20504;-67
2022/11/28 01:49:18;;;;;;;27.05;15.20;;;;;;;;;;5054184;28;20037;-67
2022/11/28 01:51:46;;;;;;;26.07;14.70;;;;;;;;;;5054288;28;20444;-67
2022/11/28 01:54:12;;;;;;;31.02;15.13;;;;;;;;;;5054646;28;20132;-67
2022/11/28 01:56:42;;;;;;;24.10;14.20;;;;;;;;;;5054264;28;20048;-67
2022/11/28 01:59:10;;;;;;;25.85;14.80;;;;;;;;;;5037899;28;20055;-67
2022/11/28 02:01:37;;;;;;;26.65;15.85;;;;;;;;;;5037672;28;20044;-69
2022/11/28 02:04:03;;;;;;;27.23;15.40;;;;;;;;;;5054349;28;20045;-67
2022/11/28 02:06:30;;;;;;;23.15;14.20;;;;;;;;;;5054245;28;20401;-67
2022/11/28 02:08:56;;;;;;;29.13;14.63;;;;;;;;;;5054046;28;20145;-67
2022/11/28 02:11:28;;;;;;;25.13;15.88;;;;;;;;;;5037317;28;20126;-67
2022/11/28 02:13:57;;;;;;;28.33;15.40;;;;;;;;;;5055326;28;20047;-67
2022/11/28 02:16:23;;;;;;;26.17;14.82;;;;;;;;;;5054218;28;20041;-68
2022/11/28 02:19:04;;;;;;;23.27;14.45;;;;;;;;;;5055156;28;20041;-67
2022/11/28 02:21:35;;;;;;;25.20;14.85;;;;;;;;;;5053591;28;20485;-67
2022/11/28 02:24:20;;;;;;;26.10;14.93;;;;;;;;;;5055234;28;20052;-67
2022/11/28 02:26:49;;;;;;;24.10;14.95;;;;;;;;;;5053992;28;20130;-67
2022/11/28 02:29:34;;;;;;;25.92;15.50;;;;;;;;;;5054730;28;20049;-69
2022/11/28 02:32:00;;;;;;;21.27;14.50;;;;;;;;;;5054007;28;20048;-67
2022/11/28 02:34:26;;;;;;;22.67;14.20;;;;;;;;;;5053883;28;20045;-67
2022/11/28 02:36:59;;;;;;;24.58;14.95;;;;;;;;;;5054939;28;20123;-67
2022/11/28 02:39:39;;;;;;;22.35;15.02;;;;;;;;;;5053479;28;20045;-67
2022/11/28 02:42:13;;;;;;;24.73;15.20;;;;;;;;;;5053392;28;20611;-68
2022/11/28 02:44:39;;;;;;;27.05;15.15;;;;;;;;;;5053653;28;20071;-69
2022/11/28 02:47:10;;;;;;;25.65;15.90;;;;;;;;;;5054531;28;20397;-68
2022/11/28 02:49:40;;;;;;;27.45;16.10;;;;;;;;;;5053131;28;20187;-67
2022/11/28 02:52:10;;;;;;;29.08;15.32;;;;;;;;;;5054339;28;20052;-67
2022/11/28 02:54:37;;;;;;;24.55;15.82;;;;;;;;;;5054513;28;20047;-67
2022/11/28 02:57:04;;;;;;;22.85;15.55;;;;;;;;;;5053224;28;20060;-67
2022/11/28 02:59:36;;;;;;;23.33;15.18;;;;;;;;;;5054754;28;20055;-67
2022/11/28 03:02:03;;;;;;;26.02;15.93;;;;;;;;;;5054584;28;20041;-67
2022/11/28 03:04:38;;;;;;;24.92;15.02;;;;;;;;;;5056859;28;20043;-67
2022/11/28 03:07:13;;;;;;;28.98;15.23;;;;;;;;;;5057628;28;20045;-67
2022/11/28 03:09:55;;;;;;;23.88;15.30;;;;;;;;;;5055518;28;20057;-66
2022/11/28 03:12:30;;;;;;;22.67;14.95;;;;;;;;;;5053856;28;20045;-68
2022/11/28 03:14:57;;;;;;;26.05;15.38;;;;;;;;;;5054447;28;20041;-67
2022/11/28 03:17:32;;;;;;;23.13;14.93;;;;;;;;;;5053419;28;20100;-67
2022/11/28 03:20:01;;;;;;;24.98;14.73;;;;;;;;;;5052683;28;20043;-68
2022/11/28 03:22:30;;;;;;;28.35;15.40;;;;;;;;;;5052565;28;20133;-67
2022/11/28 03:25:08;;;;;;;23.98;14.98;;;;;;;;;;5052693;28;20045;-68
2022/11/28 03:27:37;;;;;;;24.27;14.77;;;;;;;;;;5053961;28;20041;-67
2022/11/28 03:30:05;;;;;;;23.92;15.70;;;;;;;;;;5053725;28;20037;-67
2022/11/28 03:32:33;;;;;;;28.65;15.55;;;;;;;;;;5052894;28;20049;-67
2022/11/28 03:35:11;;;;;;;27.33;15.43;;;;;;;;;;5051683;28;20102;-68
2022/11/28 03:37:40;;;;;;;22.75;15.18;;;;;;;;;;5053791;28;20499;-68
2022/11/28 03:40:08;;;;;;;24.70;15.40;;;;;;;;;;5048751;28;20041;-68
2022/11/28 03:42:37;;;;;;;24.70;15.73;;;;;;;;;;5055592;28;20193;-67
2022/11/28 03:45:03;;;;;;;23.85;15.10;;;;;;;;;;5038834;28;20040;-67
2022/11/28 03:47:34;;;;;;;23.35;15.35;;;;;;;;;;5052435;28;20537;-68
2022/11/28 03:50:04;;;;;;;25.88;15.85;;;;;;;;;;5052076;28;20048;-67
2022/11/28 03:52:36;;;;;;;25.80;15.57;;;;;;;;;;5049601;28;20032;-67
2022/11/28 03:55:11;;;;;;;25.50;14.85;;;;;;;;;;5052210;28;20045;-68
2022/11/28 03:57:55;;;;;;;25.65;15.52;;;;;;;;;;5084445;28;20501;-68
2022/11/28 04:00:21;;;;;;;25.40;14.52;;;;;;;;;;5051995;28;20527;-68
2022/11/28 04:02:54;;;;;;;24.02;15.10;;;;;;;;;;5053292;28;20134;-67
2022/11/28 04:05:23;;;;;;;28.05;15.98;;;;;;;;;;5051744;28;20044;-68
2022/11/28 04:07:56;;;;;;;24.77;15.27;;;;;;;;;;5053009;28;20048;-68
2022/11/28 04:10:34;;;;;;;23.58;15.52;;;;;;;;;;5051985;28;20061;-68
2022/11/28 04:13:19;;;;;;;22.42;14.95;;;;;;;;;;5035101;28;20044;-67
2022/11/28 04:15:45;;;;;;;22.88;14.35;;;;;;;;;;5051416;28;20033;-67
2022/11/28 04:18:18;;;;;;;19.52;13.95;;;;;;;;;;5047278;28;20040;-67
2022/11/28 04:20:49;;;;;;;22.33;13.27;;;;;;;;;;5051654;28;20048;-67
2022/11/28 04:23:16;;;;;;;21.65;13.23;;;;;;;;;;5051640;28;20036;-67
2022/11/28 04:25:46;;;;;;;22.45;13.88;;;;;;;;;;5051807;28;20037;-68
2022/11/28 04:28:14;;;;;;;22.73;13.73;;;;;;;;;;5034978;28;20087;-65
2022/11/28 04:30:42;;;;;;;19.00;12.98;;;;;;;;;;5035367;28;20044;-65
2022/11/28 04:33:09;;;;;;;20.13;13.63;;;;;;;;;;5034591;28;20049;-65
2022/11/28 04:35:40;;;;;;;21.83;13.43;;;;;;;;;;5051722;28;20401;-65
2022/11/28 04:38:07;;;;;;;24.25;14.77;;;;;;;;;;5035084;28;20098;-65
2022/11/28 04:40:36;;;;;;;19.00;13.15;;;;;;;;;;5052954;28;20099;-64
2022/11/28 04:43:06;;;;;;;20.58;13.93;;;;;;;;;;5051277;28;20041;-65
2022/11/28 04:45:53;;;;;;;21.10;13.80;;;;;;;;;;5051709;28;20037;-66
2022/11/28 04:48:19;;;;;;;20.63;14.10;;;;;;;;;;5054600;28;20048;-64
2022/11/28 04:50:54;;;;;;;19.98;13.32;;;;;;;;;;5055274;28;20366;-65
2022/11/28 04:53:24;;;;;;;21.13;12.75;;;;;;;;;;5055502;28;20043;-65
2022/11/28 04:56:03;;;;;;;19.48;13.57;;;;;;;;;;5055558;28;20046;-65
2022/11/28 04:58:38;;;;;;;20.48;12.55;;;;;;;;;;5055047;28;20505;-65
2022/11/28 05:01:07;;;;;;;19.67;13.05;;;;;;;;;;5056754;28;20045;-64
2022/11/28 05:03:33;;;;;;;20.75;13.77;;;;;;;;;;5055118;28;20493;-65
2022/11/28 05:06:00;;;;;;;19.88;12.57;;;;;;;;;;5055614;28;20053;-65
2022/11/28 05:08:26;;;;;;;22.17;13.32;;;;;;;;;;5056214;28;20102;-65
2022/11/28 05:10:52;;;;;;;18.30;12.35;;;;;;;;;;5055406;28;20064;-64
2022/11/28 05:13:18;;;;;;;20.20;12.95;;;;;;;;;;5076673;28;20029;-65
2022/11/28 05:15:44;;;;;;;20.63;13.23;;;;;;;;;;5055209;28;20561;-65
2022/11/28 05:18:10;;;;;;;19.75;13.02;;;;;;;;;;5055209;28;20064;-65
2022/11/28 05:20:37;;;;;;;19.17;12.02;;;;;;;;;;5055101;28;20413;-65
2022/11/28 05:23:03;;;;;;;19.08;13.25;;;;;;;;;;5054837;28;20045;-65
2022/11/28 05:25:30;;;;;;;20.48;13.52;;;;;;;;;;5055383;28;20041;-65
2022/11/28 05:27:56;;;;;;;20.23;13.07;;;;;;;;;;5038448;28;20049;-65
2022/11/28 05:30:22;;;;;;;19.52;12.85;;;;;;;;;;5055172;28;20123;-65
2022/11/28 05:32:48;;;;;;;20.10;12.93;;;;;;;;;;5054551;28;20123;-64
2022/11/28 05:35:14;;;;;;;20.55;13.20;;;;;;;;;;5054782;28;20493;-64
2022/11/28 05:37:40;;;;;;;20.92;13.93;;;;;;;;;;5054780;28;20647;-65
2022/11/28 05:40:07;;;;;;;20.95;12.95;;;;;;;;;;5054697;28;20398;-65
2022/11/28 05:42:34;;;;;;;19.80;12.65;;;;;;;;;;5055076;28;20109;-64
2022/11/28 05:45:00;;;;;;;18.90;12.88;;;;;;;;;;5055220;28;20048;-65
2022/11/28 05:47:26;;;;;;;23.25;12.80;;;;;;;;;;5055840;28;20029;-64
2022/11/28 05:49:53;;;;;;;16.27;11.63;;;;;;;;;;5055625;28;20048;-65
2022/11/28 05:52:19;;;;;;;19.02;12.80;;;;;;;;;;5055682;28;20098;-65
2022/11/28 05:54:45;;;;;;;19.85;12.80;;;;;;;;;;5054233;28;20037;-64
2022/11/28 05:57:11;;;;;;;17.33;12.10;;;;;;;;;;5053887;28;20036;-65
2022/11/28 05:59:37;;;;;;;20.02;12.43;;;;;;;;;;5054279;28;20045;-68
2022/11/28 06:02:03;;;;;;;17.45;11.93;;;;;;;;;;5036595;28;20060;-64
2022/11/28 06:04:29;;;;;;;17.63;11.40;;;;;;;;;;5052602;28;20409;-65
2022/11/28 06:06:55;;;;;;;18.67;11.57;;;;;;;;;;5054256;28;20049;-64
2022/11/28 06:09:21;;;;;;;16.77;11.10;;;;;;;;;;5052601;28;20049;-64
2022/11/28 06:11:47;;;;;;;17.42;11.23;;;;;;;;;;5053052;28;20036;-65
2022/11/28 06:14:13;;;;;;;15.98;11.25;;;;;;;;;;5052797;28;20116;-65
2022/11/28 06:16:41;;;;;;;14.82;10.73;;;;;;;;;;5036428;28;20037;-65
2022/11/28 06:19:07;;;;;;;15.60;10.07;;;;;;;;;;5052692;28;20040;-65
2022/11/28 06:21:33;;;;;;;16.23;10.30;;;;;;;;;;5054258;28;20095;-65
2022/11/28 06:23:59;;;;;;;12.65;8.80;;;;;;;;;;5053693;28;20029;-65
2022/11/28 06:26:26;;;;;;;13.18;8.95;;;;;;;;;;5052822;28;20086;-65
2022/11/28 06:28:54;;;;;;;12.77;8.90;;;;;;;;;;5053976;28;20041;-65
2022/11/28 06:31:21;;;;;;;13.40;9.45;;;;;;;;;;5052781;28;20052;-66
2022/11/28 06:33:48;;;;;;;11.43;8.52;;;;;;;;;;5052859;28;20056;-66
2022/11/28 06:36:15;;;;;;;12.23;8.57;;;;;;;;;;5051733;28;20497;-66
2022/11/28 06:38:41;;;;;;;12.55;8.55;;;;;;;;;;5051889;28;20045;-66
2022/11/28 06:41:08;;;;;;;12.68;8.65;;;;;;;;;;5052957;28;20489;-66
2022/11/28 06:43:34;;;;;;;12.10;8.85;;;;;;;;;;5051910;28;20037;-66
2022/11/28 06:46:00;;;;;;;11.23;8.77;;;;;;;;;;5052094;28;20044;-66
2022/11/28 06:48:27;;;;;;;12.15;8.80;;;;;;;;;;5051933;28;20503;-66
2022/11/28 06:50:53;;;;;;;10.85;8.10;;;;;;;;;;5052226;28;20138;-66
2022/11/28 06:53:19;;;;;;;12.00;8.75;;;;;;;;;;5044086;28;20029;-66
2022/11/28 06:55:46;;;;;;;15.07;9.70;;;;;;;;;;5052252;28;20098;-66
2022/11/28 06:58:12;;;;;;;12.55;8.13;;;;;;;;;;5005504;28;1139977;-66
2022/11/28 07:00:38;;;;;;;11.23;8.27;;;;;;;;;;5034106;28;20091;-66
2022/11/28 07:03:04;;;;;;;12.65;8.35;;;;;;;;;;5036257;28;20036;-66
2022/11/28 07:05:30;;;;;;;13.00;8.90;;;;;;;;;;5052789;28;20451;-66
2022/11/28 07:07:57;;;;;;;12.18;9.00;;;;;;;;;;5052896;28;20115;-66
2022/11/28 07:10:26;;;;;;;16.40;10.32;;;;;;;;;;5052065;28;20045;-66
2022/11/28 07:12:53;;;;;;;14.02;9.45;;;;;;;;;;5086614;28;20033;-66
2022/11/28 07:15:19;;;;;;;13.63;9.25;;;;;;;;;;5052673;28;20041;-66
2022/11/28 07:17:45;;;;;;;16.15;9.35;;;;;;;;;;5052744;28;20037;-66
2022/11/28 07:20:11;;;;;;;15.85;9.70;;;;;;;;;;5052780;28;20040;-66
2022/11/28 07:22:37;;;;;;;15.18;9.40;;;;;;;;;;5052363;28;20049;-66
2022/11/28 07:25:04;;;;;;;15.70;10.15;;;;;;;;;;5052967;28;20045;-66
2022/11/28 07:27:30;;;;;;;15.73;9.95;;;;;;;;;;5052403;28;20051;-66
2022/11/28 07:29:56;;;;;;;14.73;10.07;;;;;;;;;;5052582;28;20041;-66
2022/11/28 07:32:22;;;;;;;14.55;9.55;;;;;;;;;;5035424;28;20078;-66
2022/11/28 07:34:48;;;;;;;16.55;10.65;;;;;;;;;;5052496;28;20082;-66
2022/11/28 07:37:14;;;;;;;14.57;9.57;;;;;;;;;;5052117;28;20037;-66
2022/11/28 07:39:43;;;;;;;16.65;10.98;;;;;;;;;;5052422;28;20056;-66
2022/11/28 07:42:09;;;;;;;18.58;10.52;;;;;;;;;;5053319;28;20052;-66
2022/11/28 07:44:35;;;;;;;15.45;10.57;;;;;;;;;;5052029;28;20504;-66
2022/11/28 07:47:01;;;;;;;16.92;10.80;;;;;;;;;;5035346;28;20120;-66
2022/11/28 07:49:27;;;;;;;17.23;11.55;;;;;;;;;;5052221;28;20037;-66
2022/11/28 07:51:54;;;;;;;18.70;11.13;;;;;;;;;;5053788;28;20029;-65
2022/11/28 07:54:20;;;;;;;16.92;11.18;;;;;;;;;;5052353;28;20477;-65
2022/11/28 07:56:46;;;;;;;18.67;11.52;;;;;;;;;;5035535;28;20043;-66
2022/11/28 07:59:12;;;;;;;17.42;11.07;;;;;;;;;;5052171;28;20137;-66
2022/11/28 08:01:38;;;;;;;18.80;11.10;;;;;;;;;;5052365;28;20041;-66
2022/11/28 08:04:05;;;;;;;19.38;11.88;;;;;;;;;;5051677;28;20044;-66
2022/11/28 08:06:34;;;;;;;20.20;11.77;;;;;;;;;;5035627;28;20450;-66
2022/11/28 08:09:00;;;;;;;19.83;10.88;;;;;;;;;;5052804;28;20053;-66
2022/11/28 08:11:28;;;;;;;17.27;11.32;;;;;;;;;;5051933;28;20119;-66
2022/11/28 08:13:56;;;;;;;19.10;11.18;;;;;;;;;;5051642;28;20058;-66
2022/11/28 08:16:22;;;;;;;22.27;12.13;;;;;;;;;;5052898;28;20095;-66
2022/11/28 08:18:49;;;;;;;19.70;11.73;;;;;;;;;;5051420;28;20085;-66
2022/11/28 08:21:19;;;;;;;23.73;13.48;;;;;;;;;;5051875;28;20052;-66
2022/11/28 08:23:46;;;;;;;25.05;12.95;;;;;;;;;;5051440;28;20542;-66
2022/11/28 08:26:16;;;;;;;23.83;12.27;;;;;;;;;;5034510;28;20128;-66
2022/11/28 08:28:42;;;;;;;28.02;12.65;;;;;;;;;;5052490;28;20106;-65
2022/11/28 08:31:28;;;;;;;27.40;15.07;;;;;;;;;;5049735;28;20040;-66
2022/11/28 08:33:55;;;;;;;29.95;16.05;;;;;;;;;;5065391;28;20038;-65
2022/11/28 08:36:21;;;;;;;30.70;16.02;;;;;;;;;;5050254;28;20060;-65
2022/11/28 08:38:48;;;;;;;40.15;18.42;;;;;;;;;;5050338;28;20045;-65
2022/11/28 08:41:15;;;;;;;39.42;18.73;;;;;;;;;;5050893;28;20148;-65
2022/11/28 08:43:41;;;;;;;41.42;19.42;;;;;;;;;;5031649;28;20497;-65
2022/11/28 08:46:12;;;;;;;38.60;17.77;;;;;;;;;;5064989;28;20053;-65
2022/11/28 08:48:38;;;;;;;41.65;20.55;;;;;;;;;;5074368;28;20448;-65
2022/11/28 08:51:05;;;;;;;46.58;21.17;;;;;;;;;;5031917;28;20072;-65
2022/11/28 08:53:31;;;;;;;40.35;19.35;;;;;;;;;;5049875;28;20044;-65
2022/11/28 08:55:58;;;;;;;46.55;20.95;;;;;;;;;;5051827;28;20037;-65
2022/11/28 08:58:24;;;;;;;42.35;19.23;;;;;;;;;;5050904;28;20049;-65
2022/11/28 09:00:50;;;;;;;45.47;20.42;;;;;;;;;;5052477;28;20040;-65
2022/11/28 09:03:17;;;;;;;50.97;21.90;;;;;;;;;;5051918;28;20049;-65
2022/11/28 09:05:45;;;;;;;45.35;20.02;;;;;;;;;;5051419;28;20041;-66
2022/11/28 09:08:11;;;;;;;51.47;21.83;;;;;;;;;;5050742;28;20037;-66
2022/11/28 09:10:38;;;;;;;52.20;20.85;;;;;;;;;;5051115;28;20086;-65
2022/11/28 09:13:05;;;;;;;46.95;20.27;;;;;;;;;;5050918;28;20065;-65
2022/11/28 09:15:31;;;;;;;44.70;20.35;;;;;;;;;;5051046;28;20427;-65
2022/11/28 09:17:58;;;;;;;54.20;21.10;;;;;;;;;;5052058;28;20040;-66
2022/11/28 09:20:24;;;;;;;50.47;21.65;;;;;;;;;;5051311;28;20055;-66
2022/11/28 09:22:50;;;;;;;52.50;21.20;;;;;;;;;;5031478;28;20066;-66
2022/11/28 09:25:16;;;;;;;51.00;21.60;;;;;;;;;;5046217;28;20051;-66
2022/11/28 09:27:42;;;;;;;53.08;21.63;;;;;;;;;;5051299;28;20067;-66
2022/11/28 09:30:09;;;;;;;49.58;21.40;;;;;;;;;;5050756;28;20040;-66
2022/11/28 09:32:35;;;;;;;48.38;20.73;;;;;;;;;;5035847;28;20059;-66
2022/11/28 09:35:01;;;;;;;50.42;21.80;;;;;;;;;;5054626;28;20037;-66
2022/11/28 09:37:28;;;;;;;51.38;22.63;;;;;;;;;;5055049;28;20092;-66
2022/11/28 09:39:54;;;;;;;57.45;20.95;;;;;;;;;;5054226;28;20045;-66
2022/11/28 09:42:32;;;;;;;48.03;21.75;;;;;;;;;;5037727;28;20044;-66
2022/11/28 09:45:01;;;;;;;60.22;22.83;;;;;;;;;;5054387;28;20045;-66
2022/11/28 09:47:32;;;;;;;55.75;22.45;;;;;;;;;;5054626;28;20067;-66
2022/11/28 09:50:19;;;;;;;55.50;23.55;;;;;;;;;;5054235;28;20041;-66
2022/11/28 09:52:46;;;;;;;46.75;21.63;;;;;;;;;;5054337;28;20048;-66
2022/11/28 09:55:23;;;;;;;48.85;22.02;;;;;;;;;;5055435;28;20072;-66
2022/11/28 09:57:51;;;;;;;53.90;21.85;;;;;;;;;;5053929;28;20437;-66
2022/11/28 10:00:28;;;;;;;47.35;20.75;;;;;;;;;;5053683;28;20512;-66
2022/11/28 10:03:13;;;;;;;48.85;21.63;;;;;;;;;;5055165;28;20041;-66
2022/11/28 10:05:44;;;;;;;50.15;19.95;;;;;;;;;;5054968;28;20079;-66
2022/11/28 10:08:16;;;;;;;59.87;20.63;;;;;;;;;;5053932;28;20047;-66
2022/11/28 10:10:53;;;;;;;50.22;21.50;;;;;;;;;;5053677;28;20040;-66
2022/11/28 10:13:25;;;;;;;41.15;19.50;;;;;;;;;;5054439;28;20045;-66
2022/11/28 10:16:01;;;;;;;48.95;21.58;;;;;;;;;;5053842;28;20076;-66
2022/11/28 10:18:30;;;;;;;38.67;18.73;;;;;;;;;;5055003;28;20040;-66
2022/11/28 10:20:59;;;;;;;41.78;18.35;;;;;;;;;;5055118;28;20037;-66
2022/11/28 10:23:32;;;;;;;42.78;19.35;;;;;;;;;;5054001;28;20041;-66
2022/11/28 10:25:58;;;;;;;43.28;19.13;;;;;;;;;;5053702;28;20029;-66
2022/11/28 10:28:35;;;;;;;39.40;18.20;;;;;;;;;;5053363;28;20048;-66
2022/11/28 10:31:14;;;;;;;37.85;17.52;;;;;;;;;;5053525;28;20061;-66
2022/11/28 10:33:46;;;;;;;34.47;17.85;;;;;;;;;;5053559;28;20045;-66
2022/11/28 10:36:27;;;;;;;38.08;16.85;;;;;;;;;;5053434;28;20504;-66
2022/11/28 10:38:53;;;;;;;34.80;17.27;;;;;;;;;;5053755;28;20045;-66
2022/11/28 10:41:22;;;;;;;39.38;17.08;;;;;;;;;;5054337;28;20036;-65
2022/11/28 10:43:54;;;;;;;32.65;16.70;;;;;;;;;;5052428;28;20133;-66
2022/11/28 10:46:23;;;;;;;35.42;17.30;;;;;;;;;;5054675;28;20040;-66
2022/11/28 10:48:59;;;;;;;36.45;16.83;;;;;;;;;;5036828;28;20401;-66
2022/11/28 10:51:45;;;;;;;31.02;16.60;;;;;;;;;;5053335;28;20049;-66
2022/11/28 10:54:11;;;;;;;33.10;17.40;;;;;;;;;;5054357;28;20110;-66
2022/11/28 10:56:49;;;;;;;33.92;17.20;;;;;;;;;;5054469;28;20120;-65
2022/11/28 10:59:15;;;;;;;45.83;18.40;;;;;;;;;;5076942;28;20191;-66
2022/11/28 11:01:41;;;;;;;41.78;18.67;;;;;;;;;;5045109;28;20057;-66
2022/11/28 11:04:17;;;;;;;37.13;17.58;;;;;;;;;;5036609;28;20128;-66
2022/11/28 11:06:43;;;;;;;36.70;17.30;;;;;;;;;;5085895;28;20199;-65
2022/11/28 11:09:12;;;;;;;39.55;18.52;;;;;;;;;;5052666;28;20048;-65
2022/11/28 11:11:43;;;;;;;45.97;19.40;;;;;;;;;;5052710;28;20033;-65
2022/11/28 11:14:10;;;;;;;36.65;18.35;;;;;;;;;;5054178;28;20079;-65
2022/11/28 11:16:48;;;;;;;45.03;19.70;;;;;;;;;;5035645;28;20048;-65
2022/11/28 11:19:24;;;;;;;40.58;19.23;;;;;;;;;;5052207;28;20045;-66
2022/11/28 11:21:58;;;;;;;44.35;19.98;;;;;;;;;;5052555;28;20041;-66
2022/11/28 11:24:24;;;;;;;47.10;19.75;;;;;;;;;;5054233;28;20040;-66
2022/11/28 11:26:50;;;;;;;45.83;18.90;;;;;;;;;;5052287;28;20431;-66
2022/11/28 11:29:29;;;;;;;43.30;19.08;;;;;;;;;;5052388;28;20045;-66
2022/11/28 11:31:55;;;;;;;43.13;18.55;;;;;;;;;;5051824;28;20079;-66
2022/11/28 11:34:23;;;;;;;42.10;17.85;;;;;;;;;;5052252;28;20507;-67
2022/11/28 11:36:49;;;;;;;45.42;18.55;;;;;;;;;;5035642;28;20036;-66
2022/11/28 11:39:20;;;;;;;41.45;18.73;;;;;;;;;;5035716;28;20178;-66
2022/11/28 11:42:01;;;;;;;44.47;18.52;;;;;;;;;;5051804;28;20053;-66
2022/11/28 11:44:29;;;;;;;44.45;19.10;;;;;;;;;;5051460;28;20045;-66
2022/11/28 11:47:06;;;;;;;50.95;20.75;;;;;;;;;;5052286;28;20095;-66
2022/11/28 11:49:32;;;;;;;48.08;20.02;;;;;;;;;;5053599;28;20041;-66
2022/11/28 11:51:59;;;;;;;50.47;18.92;;;;;;;;;;5051736;28;20048;-66
2022/11/28 11:54:25;;;;;;;51.53;20.00;;;;;;;;;;5052606;28;20115;-66
2022/11/28 11:56:51;;;;;;;51.08;19.58;;;;;;;;;;5051840;28;20473;-66
2022/11/28 11:59:19;;;;;;;52.25;20.15;;;;;;;;;;5053309;28;20175;-66
2022/11/28 12:01:47;;;;;;;50.78;20.38;;;;;;;;;;5053459;28;20048;-66
2022/11/28 12:04:16;;;;;;;58.50;21.58;;;;;;;;;;5052050;28;20545;-66
2022/11/28 12:06:46;;;;;;;53.53;19.92;;;;;;;;;;5035510;28;20087;-66
2022/11/28 12:09:15;;;;;;;50.08;19.55;;;;;;;;;;5052964;28;20147;-66
2022/11/28 12:11:45;;;;;;;52.38;20.33;;;;;;;;;;5052126;28;20045;-66
2022/11/28 12:14:20;;;;;;;62.25;20.85;;;;;;;;;;5051841;28;20057;-66
2022/11/28 12:16:51;;;;;;;53.72;19.55;;;;;;;;;;5052002;28;20036;-66
2022/11/28 12:19:31;;;;;;;58.42;21.13;;;;;;;;;;5051911;28;20543;-66
2022/11/28 12:22:01;;;;;;;55.03;20.63;;;;;;;;;;5053195;28;20123;-66
2022/11/28 12:24:49;;;;;;;56.60;20.58;;;;;;;;;;5052505;28;20490;-65
2022/11/28 12:27:26;;;;;;;60.15;21.60;;;;;;;;;;5052358;28;20041;-65
2022/11/28 12:30:20;;;;;;;56.60;21.13;;;;;;;;;;5051628;28;20103;-66
2022/11/28 12:32:53;;;;;;;55.10;21.33;;;;;;;;;;5051592;28;20051;-66
2022/11/28 12:35:19;;;;;;;;;;;;;;;;;;5019144;28;20044;-66
2022/11/28 12:38:20;;;;;;;58.28;20.40;;;;;;;;;;5051604;28;19991;-66
2022/11/28 12:40:46;;;;;;;68.43;21.38;;;;;;;;;;5014649;28;20037;-66
2022/11/28 12:43:16;;;;;;;56.63;20.33;;;;;;;;;;5026907;28;20140;-66
2022/11/28 12:45:42;;;;;;;54.80;20.30;;;;;;;;;;5035342;28;20045;-66
2022/11/28 12:48:28;;;;;;;60.95;21.63;;;;;;;;;;5051794;28;20041;-66
2022/11/28 12:51:27;;;;;;;51.15;19.98;;;8.80;99.90;;;;;;5051267;28;20481;-66
2022/11/28 12:54:12;;;;;;;68.13;21.70;;;;;;;;;;5037741;28;20084;-66
2022/11/28 12:56:53;;;;;;;62.58;20.98;;;;;;;;;;5051501;28;20123;-66
2022/11/28 12:59:29;;;;;;;60.63;21.90;;;;;;;;;;5050988;28;20064;-66
2022/11/28 13:02:14;;;;;;;65.30;21.83;;;;;;;;;;5051926;28;20044;-67
2022/11/28 13:04:46;;;;;;;52.95;20.88;;;;;;;;;;5050783;28;20045;-67
2022/11/28 13:07:54;;;;;;;61.83;21.05;;;8.80;99.90;;;;;;5051426;28;20450;-67
2022/11/28 13:10:25;;;;;;;64.57;20.45;;;;;;;;;;5048648;28;20045;-67
2022/11/28 13:13:00;;;;;;;63.80;21.03;;;;;;;;;;5038434;28;20051;-67
2022/11/28 13:15:45;;;;;;;67.10;21.13;;;;;;;;;;5088300;28;20033;-66
2022/11/28 13:18:38;;;;;;;62.35;21.08;;;;;;;;;;5020405;28;20046;-67
2022/11/28 13:21:04;;;;;;;69.32;20.88;;;;;;;;;;5021062;28;20089;-67
2022/11/28 13:23:38;;;;;;;56.17;20.08;;;;;;;;;;5052729;28;20047;-67
2022/11/28 13:26:04;;;;;;;64.90;21.42;;;;;;;;;;5056086;28;20044;-67
2022/11/28 13:28:35;;;;;;;58.58;20.42;;;;;;;;;;5054476;28;20037;-66
2022/11/28 13:31:05;;;;;;;55.53;20.05;;;;;;;;;;5052936;28;20087;-69
2022/11/28 13:33:31;;;;;;;68.65;20.00;;;;;;;;;;5052698;28;20037;-69
2022/11/28 13:35:58;;;;;;;78.03;22.42;;;;;;;;;;5036089;28;20032;-66
2022/11/28 13:38:43;;;;;;;68.15;21.63;;;;;;;;;;5053525;28;20037;-66
2022/11/28 13:41:22;;;;;;;66.95;22.50;;;;;;;;;;5034852;28;20482;-66
2022/11/28 13:43:53;;;;;;;66.70;21.48;;;;;;;;;;5039551;28;20029;-66
2022/11/28 13:46:19;;;;;;;70.95;20.17;;;;;;;;;;5055757;28;20037;-66
2022/11/28 13:48:47;;;;;;;63.92;21.25;;;;;;;;;;5021657;28;20045;-67
2022/11/28 13:51:21;;;;;;;60.08;20.65;;;;;;;;;;5054420;28;20037;-67
2022/11/28 13:53:48;;;;;;;69.10;20.50;;;;;;;;;;5053248;28;20521;-66
2022/11/28 13:56:20;;;;;;;67.50;21.80;;;;;;;;;;5055132;28;20120;-67
2022/11/28 13:58:52;;;;;;;74.78;21.33;;;;;;;;;;5053795;28;20143;-66
2022/11/28 14:01:19;;;;;;;67.57;20.30;;;;;;;;;;5054027;28;20492;-66
2022/11/28 14:04:01;;;;;;;74.72;21.63;;;;;;;;;;5053276;28;20290;-66
2022/11/28 14:06:47;;;;;;;85.90;21.70;;;;;;;;;;5052978;28;20127;-66
2022/11/28 14:09:13;;;;;;;68.00;20.83;;;;;;;;;;5053788;28;20037;-66
2022/11/28 14:12:16;;;;;;;71.63;22.63;;;9.20;99.90;;;;;;5054328;28;20036;-66
2022/11/28 14:14:58;;;;;;;83.40;21.58;;;;;;;;;;5037382;28;20509;-66
2022/11/28 14:17:30;;;;;;;69.90;20.65;;;;;;;;;;5055028;28;20080;-66
2022/11/28 14:19:56;;;;;;;67.45;22.30;;;;;;;;;;5055119;28;20438;-66
2022/11/28 14:22:41;;;;;;;72.05;22.55;;;;;;;;;;5053504;28;20053;-66
2022/11/28 14:25:18;;;;;;;82.45;22.08;;;;;;;;;;5053920;28;20063;-66
2022/11/28 14:27:53;;;;;;;87.95;22.65;;;;;;;;;;5052438;28;20043;-66
2022/11/28 14:30:31;;;;;;;77.68;24.20;;;;;;;;;;5053519;28;20041;-66
2022/11/28 14:33:00;;;;;;;73.45;22.92;;;;;;;;;;5052955;28;20052;-66